createdAt,value
2023-03-06T00:00:33.423Z,100122.91
2023-03-06T00:03:00.201Z,100114.25
2023-03-06T00:05:27.474Z,100111.88
2023-03-06T00:07:54.201Z,100121.47
2023-03-06T00:10:24.435Z,100116.28
2023-03-06T00:12:55.905Z,100096.44
2023-03-06T00:15:23.868Z,100107.13
2023-03-06T00:17:50.763Z,100116.28
2023-03-06T00:20:18.049Z,100098.34
2023-03-06T00:22:45.921Z,100104.31
2023-03-06T00:25:14.952Z,100099.91
2023-03-06T00:27:41.946Z,100103.88
2023-03-06T00:30:12.152Z,100095.06
2023-03-06T00:32:38.872Z,100092.00
2023-03-06T00:35:05.922Z,100095.63
2023-03-06T00:37:32.671Z,100095.84
2023-03-06T00:39:59.248Z,100085.59
2023-03-06T00:42:25.871Z,100053.69
2023-03-06T00:44:52.434Z,100098.34
2023-03-06T00:47:18.982Z,100088.50
2023-03-06T00:49:45.862Z,100091.34
2023-03-06T00:52:13.646Z,100103.63
2023-03-06T00:54:40.823Z,100106.47
2023-03-06T00:57:08.122Z,100100.16
2023-03-06T00:59:35.571Z,100089.91
2023-03-06T01:02:02.988Z,100097.94
2023-03-06T01:04:29.690Z,100094.50
2023-03-06T01:06:56.578Z,100094.97
2023-03-06T01:09:24.289Z,100096.53
2023-03-06T01:11:53.626Z,100072.75
2023-03-06T01:14:21.135Z,100084.59
2023-03-06T01:16:48.021Z,100069.91
2023-03-06T01:19:17.702Z,100067.22
2023-03-06T01:21:45.134Z,100055.97
2023-03-06T01:24:11.665Z,100076.25
2023-03-06T01:26:38.406Z,100069.00
2023-03-06T01:29:05.026Z,100073.28
2023-03-06T01:31:32.203Z,100067.41
2023-03-06T01:33:58.942Z,100066.63
2023-03-06T01:36:25.694Z,100069.91
2023-03-06T01:38:52.240Z,100074.97
2023-03-06T01:41:21.081Z,100061.25
2023-03-06T01:43:47.978Z,100045.56
2023-03-06T01:46:24.939Z,100059.44
2023-03-06T01:49:15.065Z,100071.16
2023-03-06T01:51:48.307Z,100058.53
2023-03-06T01:54:22.032Z,100067.09
2023-03-06T01:56:51.060Z,100073.31
2023-03-06T01:59:19.297Z,100057.88
2023-03-06T02:01:47.026Z,100051.31
2023-03-06T02:04:14.315Z,100047.34
2023-03-06T02:06:43.277Z,100060.13
2023-03-06T02:09:11.684Z,100058.06
2023-03-06T02:11:38.748Z,100042.16
2023-03-06T02:14:07.229Z,100054.34
2023-03-06T02:16:34.036Z,100031.13
2023-03-06T02:19:02.711Z,100050.06
2023-03-06T02:21:34.227Z,100050.72
2023-03-06T02:24:12.076Z,100048.38
2023-03-06T02:26:40.434Z,100035.16
2023-03-06T02:29:08.476Z,100048.38
2023-03-06T02:31:35.644Z,100023.00
2023-03-06T02:34:28.214Z,100033.91
2023-03-06T02:37:08.793Z,100027.72
2023-03-06T02:39:46.706Z,100012.28
2023-03-06T02:42:22.187Z,100020.63
2023-03-06T02:44:51.163Z,100036.53
2023-03-06T02:47:17.851Z,100036.19
2023-03-06T02:49:44.734Z,100005.31
2023-03-06T02:52:11.498Z,100033.38
2023-03-06T02:54:39.011Z,100021.06
2023-03-06T02:57:06.656Z,100024.69
2023-03-06T02:59:33.826Z,100034.94
2023-03-06T03:02:01.808Z,100033.38
2023-03-06T03:04:28.273Z,100032.59
2023-03-06T03:06:54.835Z,100028.50
2023-03-06T03:09:22.462Z,100020.28
2023-03-06T03:11:48.930Z,100022.31
2023-03-06T03:14:16.619Z,100019.84
2023-03-06T03:16:45.978Z,100007.88
2023-03-06T03:19:12.417Z,100003.47
2023-03-06T03:21:40.620Z,100000.31
2023-03-06T03:24:07.863Z,100018.94
2023-03-06T03:26:34.413Z,99997.50
2023-03-06T03:29:10.638Z,99994.34
2023-03-06T03:31:37.074Z,100002.91
2023-03-06T03:34:03.907Z,100002.00
2023-03-06T03:36:33.856Z,100003.22
2023-03-06T03:39:00.459Z,99980.88
2023-03-06T03:41:27.191Z,99971.53
2023-03-06T03:43:53.715Z,99974.25
2023-03-06T03:46:21.494Z,99962.63
2023-03-06T03:48:49.118Z,99980.31
2023-03-06T03:51:16.558Z,99978.06
2023-03-06T03:53:46.961Z,99970.84
2023-03-06T03:56:16.995Z,99971.16
2023-03-06T03:58:53.165Z,99978.72
2023-03-06T04:01:20.335Z,99962.06
2023-03-06T04:03:47.328Z,99973.06
2023-03-06T04:06:15.405Z,99975.59
2023-03-06T04:08:42.207Z,99965.19
2023-03-06T04:11:09.348Z,99958.56
2023-03-06T04:13:35.848Z,99963.63
2023-03-06T04:16:03.205Z,99955.41
2023-03-06T04:18:31.646Z,99965.53
2023-03-06T04:21:02.990Z,99966.31
2023-03-06T04:23:30.685Z,99952.91
2023-03-06T04:25:57.783Z,99954.16
2023-03-06T04:28:24.385Z,99953.81
2023-03-06T04:30:51.340Z,99952.44
2023-03-06T04:33:19.186Z,99941.41
2023-03-06T04:35:45.673Z,99966.44
2023-03-06T04:38:18.233Z,99956.41
2023-03-06T04:40:45.196Z,99954.03
2023-03-06T04:43:12.004Z,99942.84
2023-03-06T04:45:38.488Z,99941.63
2023-03-06T04:48:05.346Z,99938.47
2023-03-06T04:50:32.553Z,99941.28
2023-03-06T04:53:01.385Z,99938.78
2023-03-06T04:55:28.185Z,99943.53
2023-03-06T04:57:54.667Z,99929.59
2023-03-06T05:00:23.707Z,99947.59
2023-03-06T05:02:51.212Z,99944.75
2023-03-06T05:05:18.260Z,99918.53
2023-03-06T05:07:44.721Z,99929.00
2023-03-06T05:10:16.320Z,99916.72
2023-03-06T05:12:43.039Z,99915.03
2023-03-06T05:15:10.776Z,99938.78
2023-03-06T05:17:37.948Z,99917.41
2023-03-06T05:20:07.399Z,99924.38
2023-03-06T05:22:34.662Z,99927.19
2023-03-06T05:25:01.620Z,99921.44
2023-03-06T05:27:28.266Z,99898.59
2023-03-06T05:29:54.842Z,99918.81
2023-03-06T05:32:21.941Z,99901.94
2023-03-06T05:34:49.665Z,99917.25
2023-03-06T05:37:16.388Z,99923.69
2023-03-06T05:39:44.482Z,99888.22
2023-03-06T05:42:11.115Z,99888.81
2023-03-06T05:44:37.924Z,99922.13
2023-03-06T05:47:04.952Z,99916.47
2023-03-06T05:49:33.088Z,99911.75
2023-03-06T05:52:00.143Z,99908.59
2023-03-06T05:54:26.839Z,99894.75
2023-03-06T05:56:53.526Z,99911.28
2023-03-06T05:59:19.985Z,99891.91
2023-03-06T06:01:46.405Z,99904.19
2023-03-06T06:04:12.822Z,99916.13
2023-03-06T06:06:39.456Z,99908.59
2023-03-06T06:09:05.912Z,99907.34
2023-03-06T06:11:32.376Z,99896.28
2023-03-06T06:13:58.926Z,99909.84
2023-03-06T06:16:25.337Z,99900.13
2023-03-06T06:18:51.769Z,99891.91
2023-03-06T06:21:18.226Z,99899.47
2023-03-06T06:23:44.654Z,99906.22
2023-03-06T06:26:11.060Z,99908.25
2023-03-06T06:28:38.048Z,99900.38
2023-03-06T06:31:10.627Z,99909.50
2023-03-06T06:33:37.145Z,99898.00
2023-03-06T06:36:03.888Z,99901.63
2023-03-06T06:38:30.404Z,99903.19
2023-03-06T06:41:30.796Z,99907.13
2023-03-06T06:43:43.342Z,99912.78
2023-03-06T06:46:36.531Z,99913.56
2023-03-06T06:48:56.190Z,99879.00
2023-03-06T06:51:22.827Z,99903.44
2023-03-06T06:53:52.142Z,99888.00
2023-03-06T06:56:18.615Z,99889.91
2023-03-06T06:58:45.073Z,99908.72
2023-03-06T07:01:13.359Z,99917.97
2023-03-06T07:03:40.846Z,99915.13
2023-03-06T07:06:07.907Z,99907.25
2023-03-06T07:08:34.891Z,99896.22
2023-03-06T07:11:07.262Z,99920.00
2023-03-06T07:13:34.418Z,99915.13
2023-03-06T07:16:01.321Z,99894.66
2023-03-06T07:18:27.914Z,99917.19
2023-03-06T07:20:54.942Z,99900.06
2023-03-06T07:23:21.669Z,99894.66
2023-03-06T07:25:48.228Z,99905.69
2023-03-06T07:28:14.729Z,99911.06
2023-03-06T07:30:41.927Z,99916.59
2023-03-06T07:33:08.948Z,99912.66
2023-03-06T07:35:36.021Z,99915.81
2023-03-06T07:38:02.501Z,99900.50
2023-03-06T07:40:28.955Z,99925.88
2023-03-06T07:43:09.058Z,99915.03
2023-03-06T07:45:43.413Z,99907.94
2023-03-06T07:48:09.898Z,99912.66
2023-03-06T07:50:38.919Z,99891.38
2023-03-06T07:53:05.380Z,99920.53
2023-03-06T07:55:31.769Z,99883.03
2023-03-06T07:57:58.205Z,99918.81
2023-03-06T08:00:25.357Z,99897.22
2023-03-06T08:02:51.797Z,99928.41
2023-03-06T08:05:18.494Z,99913.75
2023-03-06T08:07:45.501Z,99924.38
2023-03-06T08:10:16.602Z,99921.19
2023-03-06T08:12:43.597Z,99919.19
2023-03-06T08:15:11.665Z,99904.19
2023-03-06T08:17:38.217Z,99918.59
2023-03-06T08:20:05.810Z,99917.59
2023-03-06T08:22:34.421Z,99903.84
2023-03-06T08:25:00.849Z,99924.09
2023-03-06T08:27:27.603Z,99916.22
2023-03-06T08:29:54.116Z,99903.84
2023-03-06T08:32:20.779Z,99920.94
2023-03-06T08:34:47.304Z,99933.81
2023-03-06T08:37:13.710Z,99906.09
2023-03-06T08:39:40.199Z,99940.13
2023-03-06T08:42:07.241Z,99934.00
2023-03-06T08:44:34.321Z,99932.56
2023-03-06T08:47:01.013Z,99935.25
2023-03-06T08:49:27.463Z,99911.84
2023-03-06T08:51:53.897Z,99944.06
2023-03-06T08:54:20.358Z,99918.63
2023-03-06T08:56:46.891Z,99958.81
2023-03-06T08:59:13.744Z,99960.88
2023-03-06T09:01:40.503Z,99943.84
2023-03-06T09:04:10.651Z,99943.53
2023-03-06T09:06:40.064Z,99949.19
2023-03-06T09:09:07.141Z,99963.09
2023-03-06T09:11:34.508Z,99957.72
2023-03-06T09:14:01.025Z,99970.00
2023-03-06T09:16:27.675Z,99978.47
2023-03-06T09:18:54.402Z,99980.72
2023-03-06T09:21:22.466Z,99983.88
2023-03-06T09:23:48.883Z,99986.00
2023-03-06T09:26:15.443Z,99983.09
2023-03-06T09:28:42.012Z,99979.47
2023-03-06T09:31:14.740Z,99981.03
2023-03-06T09:33:41.400Z,99977.31
2023-03-06T09:36:10.350Z,99982.50
2023-03-06T09:38:36.820Z,99982.03
2023-03-06T09:43:36.817Z,99982.69
2023-03-06T09:46:16.768Z,99973.75
2023-03-06T09:49:21.369Z,99983.03
2023-03-06T09:52:12.897Z,99984.13
2023-03-06T09:54:46.011Z,99980.06
2023-03-06T09:57:26.195Z,99972.84
2023-03-06T10:00:02.026Z,99975.88
2023-03-06T10:02:40.379Z,99974.16
2023-03-06T10:05:33.076Z,99973.69
2023-03-06T10:08:03.282Z,99974.03
2023-03-06T10:10:44.196Z,99961.16
2023-03-06T10:13:38.077Z,99967.78
2023-03-06T10:16:23.720Z,99965.09
2023-03-06T10:18:52.168Z,99974.88
2023-03-06T10:21:29.788Z,99968.78
2023-03-06T10:24:09.356Z,99962.66
2023-03-06T10:26:50.716Z,99965.50
2023-03-06T10:29:32.782Z,99957.00
2023-03-06T10:32:49.568Z,99962.16
2023-03-06T10:35:22.009Z,99959.22
2023-03-06T10:37:48.684Z,99950.88
2023-03-06T10:40:20.919Z,99956.41
2023-03-06T10:42:47.358Z,99954.69
2023-03-06T10:45:16.138Z,99961.91
2023-03-06T10:47:44.039Z,99957.84
2023-03-06T10:50:31.642Z,99960.69
2023-03-06T10:53:05.000Z,99962.09
2023-03-06T10:55:37.591Z,99963.34
2023-03-06T10:58:24.421Z,99958.81
2023-03-06T11:01:20.620Z,99950.66
2023-03-06T11:03:47.825Z,99962.28
2023-03-06T11:06:37.674Z,99947.03
2023-03-06T11:09:23.146Z,99962.28
2023-03-06T11:11:50.748Z,99959.31
2023-03-06T11:14:20.657Z,99958.84
2023-03-06T11:16:53.650Z,99947.88
2023-03-06T11:19:28.810Z,99956.34
2023-03-06T11:22:19.137Z,99949.13
2023-03-06T11:24:51.508Z,99941.91
2023-03-06T11:27:26.488Z,99944.13
2023-03-06T11:29:55.575Z,99946.00
2023-03-06T11:32:29.290Z,99933.72
2023-03-06T11:35:02.528Z,99933.16
2023-03-06T11:37:31.786Z,99935.81
2023-03-06T11:40:06.417Z,99929.41
2023-03-06T11:42:40.748Z,99930.94
2023-03-06T11:45:25.934Z,99935.06
2023-03-06T11:48:20.856Z,99922.94
2023-03-06T11:50:48.817Z,99934.09
2023-03-06T11:53:21.049Z,99935.38
2023-03-06T11:56:20.657Z,99926.22
2023-03-06T11:59:20.013Z,99932.53
2023-03-06T12:02:12.893Z,99930.03
2023-03-06T12:05:08.880Z,99926.88
2023-03-06T12:07:47.503Z,99926.88
2023-03-06T12:10:23.230Z,99921.22
2023-03-06T12:13:15.956Z,99923.75
2023-03-06T12:16:25.159Z,99925.97
2023-03-06T12:19:13.299Z,99924.38
2023-03-06T12:22:08.147Z,99920.31
2023-03-06T12:24:56.650Z,99914.00
2023-03-06T12:28:19.132Z,99921.84
2023-03-06T12:31:16.571Z,99923.44
2023-03-06T12:33:52.173Z,99916.84
2023-03-06T12:36:24.668Z,99914.81
2023-03-06T12:39:09.427Z,99909.31
2023-03-06T12:42:04.917Z,99911.97
2023-03-06T12:44:53.311Z,99908.38
2023-03-06T12:47:28.121Z,99894.38
2023-03-06T12:50:03.227Z,99884.47
2023-03-06T12:52:32.435Z,99897.72
2023-03-06T12:55:01.029Z,99890.78
2023-03-06T12:57:27.776Z,99890.78
2023-03-06T12:59:54.933Z,99886.53
2023-03-06T13:02:54.025Z,99890.78
2023-03-06T13:05:31.454Z,99881.84
2023-03-06T13:08:15.812Z,99881.06
2023-03-06T13:10:47.891Z,99883.44
2023-03-06T13:13:32.516Z,99875.41
2023-03-06T13:16:10.614Z,99873.66
2023-03-06T13:18:37.358Z,99874.47
2023-03-06T13:21:04.929Z,99886.56
2023-03-06T13:23:43.109Z,99874.00
2023-03-06T13:26:25.012Z,99866.00
2023-03-06T13:28:54.107Z,99866.31
2023-03-06T13:31:32.470Z,99821.47
2023-03-06T13:34:03.641Z,99858.28
2023-03-06T13:36:33.130Z,99865.06
2023-03-06T13:39:01.709Z,99849.00
2023-03-06T13:41:31.267Z,99879.81
2023-03-06T13:44:00.005Z,99868.50
2023-03-06T13:46:35.538Z,99864.72
2023-03-06T13:49:15.558Z,99856.69
2023-03-06T13:52:05.960Z,99865.69
2023-03-06T13:55:13.863Z,99862.84
2023-03-06T13:57:59.277Z,99850.75
2023-03-06T14:01:10.843Z,99861.31
2023-03-06T14:04:08.204Z,99857.19
2023-03-06T14:06:34.664Z,99853.13
2023-03-06T14:09:18.827Z,99851.84
2023-03-06T14:11:54.660Z,99840.22
2023-03-06T14:15:13.622Z,99847.78
2023-03-06T14:18:05.494Z,99847.31
2023-03-06T14:20:42.124Z,99842.44
2023-03-06T14:23:35.384Z,99841.19
2023-03-06T14:26:22.950Z,99837.41
2023-03-06T14:28:56.689Z,99841.50
2023-03-06T14:31:25.405Z,99826.72
2023-03-06T14:33:55.075Z,99838.03
2023-03-06T14:36:24.193Z,99838.84
2023-03-06T14:38:56.930Z,99832.38
2023-03-06T14:41:34.371Z,99838.03
2023-03-06T14:44:21.588Z,99829.88
2023-03-06T14:46:51.570Z,99843.56
2023-03-06T14:49:20.676Z,99834.44
2023-03-06T14:51:52.597Z,99831.13
2023-03-06T14:54:24.452Z,99838.69
2023-03-06T14:56:54.093Z,99819.66
2023-03-06T14:59:25.915Z,99833.81
2023-03-06T15:01:59.212Z,99834.59
2023-03-06T15:04:37.035Z,99823.41
2023-03-06T15:07:09.251Z,99823.28
2023-03-06T15:09:37.587Z,99824.84
2023-03-06T15:12:21.145Z,99819.66
2023-03-06T15:15:04.185Z,99813.22
2023-03-06T15:17:40.851Z,99813.06
2023-03-06T15:20:27.972Z,99820.47
2023-03-06T15:22:54.543Z,99815.88
2023-03-06T15:25:27.988Z,99804.72
2023-03-06T15:28:14.423Z,99791.22
2023-03-06T15:30:40.899Z,99807.88
2023-03-06T15:33:22.646Z,99811.03
2023-03-06T15:36:01.763Z,99800.97
2023-03-06T15:38:44.654Z,99798.13
2023-03-06T15:41:38.154Z,99797.03
2023-03-06T15:44:12.572Z,99785.56
2023-03-06T15:46:39.251Z,99798.13
2023-03-06T15:49:14.233Z,99794.06
2023-03-06T15:51:41.087Z,99797.66
2023-03-06T15:54:12.196Z,99795.59
2023-03-06T15:56:42.732Z,99781.47
2023-03-06T15:59:16.856Z,99778.50
2023-03-06T16:01:43.712Z,99792.00
2023-03-06T16:04:10.367Z,99774.84
2023-03-06T16:06:37.617Z,99773.78
2023-03-06T16:09:05.918Z,99773.78
2023-03-06T16:11:43.225Z,99779.75
2023-03-06T16:14:23.477Z,99781.81
2023-03-06T16:16:52.159Z,99770.94
2023-03-06T16:19:26.228Z,99773.31
2023-03-06T16:21:53.192Z,99777.69
2023-03-06T16:24:19.614Z,99772.97
2023-03-06T16:26:48.615Z,99778.47
2023-03-06T16:29:17.294Z,99766.38
2023-03-06T16:31:43.914Z,99763.53
2023-03-06T16:34:10.604Z,99772.03
2023-03-06T16:36:37.093Z,99768.44
2023-03-06T16:39:04.116Z,99761.03
2023-03-06T16:41:30.621Z,99776.59
2023-03-06T16:43:57.195Z,99777.06
2023-03-06T16:46:25.389Z,99775.03
2023-03-06T16:49:03.165Z,99775.19
2023-03-06T16:51:29.950Z,99781.16
2023-03-06T16:53:56.418Z,99775.50
2023-03-06T16:56:22.853Z,99772.03
2023-03-06T16:58:49.380Z,99774.38
2023-03-06T17:01:18.506Z,99772.38
2023-03-06T17:03:46.115Z,99758.03
2023-03-06T17:06:17.413Z,99761.34
2023-03-06T17:08:44.929Z,99772.97
2023-03-06T17:11:12.296Z,99770.13
2023-03-06T17:13:39.177Z,99773.94
2023-03-06T17:16:06.817Z,99759.16
2023-03-06T17:18:33.824Z,99760.41
2023-03-06T17:21:00.588Z,99764.16
2023-03-06T17:23:30.346Z,99774.53
2023-03-06T17:26:07.749Z,99769.81
2023-03-06T17:28:35.364Z,99767.50
2023-03-06T17:31:02.866Z,99765.91
2023-03-06T17:33:29.738Z,99766.38
2023-03-06T17:36:00.698Z,99764.78
2023-03-06T17:38:27.972Z,99758.19
2023-03-06T17:40:54.564Z,99767.00
2023-03-06T17:43:21.517Z,99756.00
2023-03-06T17:45:47.928Z,99757.56
2023-03-06T17:48:14.475Z,99759.28
2023-03-06T17:50:40.923Z,99761.03
2023-03-06T17:53:07.300Z,99762.59
2023-03-06T17:55:33.741Z,99757.56
2023-03-06T17:58:00.446Z,99770.75
2023-03-06T18:00:26.828Z,99754.72
2023-03-06T18:02:53.256Z,99754.09
2023-03-06T18:05:21.686Z,99758.50
2023-03-06T18:07:48.119Z,99754.72
2023-03-06T18:10:14.572Z,99753.00
2023-03-06T18:12:40.995Z,99755.50
2023-03-06T18:15:08.033Z,99738.38
2023-03-06T18:17:34.553Z,99742.78
2023-03-06T18:20:01.020Z,99743.41
2023-03-06T18:22:27.507Z,99739.94
2023-03-06T18:24:53.991Z,99740.13
2023-03-06T18:27:21.773Z,99735.53
2023-03-06T18:29:48.354Z,99740.25
2023-03-06T18:32:14.819Z,99731.44
2023-03-06T18:34:41.258Z,99741.19
2023-03-06T18:37:08.060Z,99738.34
2023-03-06T18:39:34.870Z,99729.25
2023-03-06T18:42:01.804Z,99708.66
2023-03-06T18:44:28.641Z,99728.47
2023-03-06T18:46:55.121Z,99726.13
2023-03-06T18:49:22.059Z,99722.94
2023-03-06T18:51:50.121Z,99704.25
2023-03-06T18:54:17.955Z,99717.00
2023-03-06T18:56:44.645Z,99709.75
2023-03-06T18:59:18.515Z,99715.09
2023-03-06T19:01:46.344Z,99710.22
2023-03-06T19:04:12.877Z,99688.41
2023-03-06T19:06:40.560Z,99698.31
2023-03-06T19:09:07.285Z,99695.94
2023-03-06T19:11:34.345Z,99700.00
2023-03-06T19:14:01.084Z,99695.16
2023-03-06T19:16:29.488Z,99698.47
2023-03-06T19:18:57.312Z,99702.53
2023-03-06T19:21:26.245Z,99695.28
2023-03-06T19:23:52.858Z,99693.75
2023-03-06T19:26:19.364Z,99688.09
2023-03-06T19:28:46.456Z,99685.72
2023-03-06T19:31:16.219Z,99675.84
2023-03-06T19:33:43.074Z,99681.78
2023-03-06T19:36:12.065Z,99674.59
2023-03-06T19:38:38.728Z,99673.00
2023-03-06T19:41:06.184Z,99666.56
2023-03-06T19:43:32.742Z,99669.88
2023-03-06T19:46:00.538Z,99663.56
2023-03-06T19:48:27.151Z,99663.88
2023-03-06T19:50:53.696Z,99665.94
2023-03-06T19:53:21.611Z,99659.16
2023-03-06T19:55:48.213Z,99661.22
2023-03-06T19:58:14.672Z,99658.38
2023-03-06T20:00:42.357Z,99655.25
2023-03-06T20:03:09.197Z,99642.06
2023-03-06T20:05:35.756Z,99641.28
2023-03-06T20:08:02.161Z,99635.00
2023-03-06T20:10:29.176Z,99632.47
2023-03-06T20:12:55.673Z,99629.34
2023-03-06T20:15:22.942Z,99618.06
2023-03-06T20:17:49.980Z,99620.56
2023-03-06T20:20:16.657Z,99612.56
2023-03-06T20:22:43.286Z,99594.97
2023-03-06T20:25:10.038Z,99606.25
2023-03-06T20:27:36.765Z,99597.31
2023-03-06T20:30:03.981Z,99582.91
2023-03-06T20:32:31.236Z,99574.91
2023-03-06T20:34:57.702Z,99567.81
2023-03-06T20:37:24.311Z,99570.97
2023-03-06T20:39:52.552Z,99559.66
2023-03-06T20:42:19.070Z,99549.81
2023-03-06T20:44:45.579Z,99556.53
2023-03-06T20:47:12.107Z,99551.66
2023-03-06T20:49:38.624Z,99549.31
2023-03-06T20:52:05.171Z,99545.88
2023-03-06T20:54:31.735Z,99544.63
2023-03-06T20:56:58.221Z,99548.22
2023-03-06T20:59:24.761Z,99536.94
2023-03-06T21:01:51.400Z,99537.69
2023-03-06T21:04:17.992Z,99536.63
2023-03-06T21:06:47.189Z,99529.69
2023-03-06T21:09:16.817Z,99526.56
2023-03-06T21:11:43.613Z,99521.41
2023-03-06T21:14:11.550Z,99515.91
2023-03-06T21:16:37.996Z,99512.94
2023-03-06T21:19:05.260Z,99509.78
2023-03-06T21:21:34.533Z,99501.78
2023-03-06T21:24:02.322Z,99495.34
2023-03-06T21:26:31.441Z,99490.97
2023-03-06T21:29:00.826Z,99489.56
2023-03-06T21:31:28.419Z,99483.75
2023-03-06T21:33:56.037Z,99476.56
2023-03-06T21:36:22.923Z,99477.78
2023-03-06T21:38:50.985Z,99471.84
2023-03-06T21:41:24.765Z,99467.44
2023-03-06T21:43:59.423Z,99459.13
2023-03-06T21:46:27.206Z,99456.63
2023-03-06T21:48:54.136Z,99435.13
2023-03-06T21:51:23.620Z,99448.00
2023-03-06T21:53:51.110Z,99431.06
2023-03-06T21:56:20.156Z,99432.31
2023-03-06T21:58:46.980Z,99433.56
2023-03-06T22:01:17.196Z,99413.50
2023-03-06T22:03:43.792Z,99414.44
2023-03-06T22:06:12.470Z,99411.63
2023-03-06T22:08:40.001Z,99398.75
2023-03-06T22:11:15.429Z,99398.44
2023-03-06T22:13:42.329Z,99396.88
2023-03-06T22:16:09.389Z,99395.31
2023-03-06T22:18:35.946Z,99395.31
2023-03-06T22:21:10.494Z,99385.28
2023-03-06T22:23:37.069Z,99367.41
2023-03-06T22:26:09.476Z,99367.09
2023-03-06T22:28:36.068Z,99370.56
2023-03-06T22:31:07.694Z,99354.41
2023-03-06T22:33:34.251Z,99352.84
2023-03-06T22:36:10.199Z,99353.00
2023-03-06T22:38:39.133Z,99351.75
2023-03-06T22:41:07.279Z,99337.66
2023-03-06T22:43:35.035Z,99334.50
2023-03-06T22:46:07.253Z,99330.44
2023-03-06T22:48:34.086Z,99336.84
2023-03-06T22:51:06.502Z,99324.00
2023-03-06T22:53:33.722Z,99318.66
2023-03-06T22:56:02.029Z,99326.03
2023-03-06T22:58:34.363Z,99324.78
2023-03-06T23:01:08.865Z,99317.56
2023-03-06T23:03:37.130Z,99318.38
2023-03-06T23:06:18.730Z,99311.91
2023-03-06T23:08:49.380Z,99303.16
2023-03-06T23:11:18.219Z,99284.06
2023-03-06T23:14:05.384Z,99270.41
2023-03-06T23:16:51.142Z,99273.69
2023-03-06T23:19:36.290Z,99279.34
2023-03-06T23:22:22.912Z,99261.94
2023-03-06T23:25:09.157Z,99253.97
2023-03-06T23:27:36.472Z,99255.50
2023-03-06T23:30:06.940Z,99242.69
2023-03-06T23:32:35.069Z,99240.16
2023-03-06T23:35:01.614Z,99221.06
2023-03-06T23:37:28.181Z,99219.16
2023-03-06T23:39:54.939Z,99218.69
2023-03-06T23:42:22.556Z,99215.06
2023-03-06T23:44:49.108Z,99208.84
2023-03-06T23:47:17.177Z,99198.94
2023-03-06T23:49:43.726Z,99206.94
2023-03-06T23:52:10.172Z,99182.78
2023-03-06T23:54:36.687Z,99173.09
2023-03-06T23:57:03.413Z,99177.44
2023-03-06T23:59:30.115Z,99171.03
